createdAt,value
2022-12-04T00:01:59.983Z,1.83
2022-12-04T00:07:31.056Z,1.84
2022-12-04T00:13:02.606Z,1.84
2022-12-04T00:18:34.385Z,1.85
2022-12-04T00:24:06.193Z,1.85
2022-12-04T00:29:37.467Z,1.86
2022-12-04T00:35:10.080Z,1.86
2022-12-04T00:40:49.715Z,1.87
2022-12-04T00:46:21.937Z,1.87
2022-12-04T00:51:53.172Z,1.86
2022-12-04T00:57:24.579Z,1.85
2022-12-04T01:02:55.844Z,1.83
2022-12-04T01:08:27.172Z,1.84
2022-12-04T01:13:59.572Z,1.85
2022-12-04T01:19:30.879Z,1.86
2022-12-04T01:25:02.276Z,1.87
2022-12-04T01:30:33.313Z,1.89
2022-12-04T01:36:07.627Z,1.90
2022-12-04T01:41:38.734Z,1.90
2022-12-04T01:47:11.321Z,1.90
2022-12-04T01:52:42.831Z,1.91
2022-12-04T01:58:16.079Z,1.91
2022-12-04T02:03:47.064Z,1.91
2022-12-04T02:09:23.000Z,1.92
2022-12-04T02:15:15.733Z,1.92
2022-12-04T02:20:58.472Z,1.93
2022-12-04T02:26:54.209Z,1.93
2022-12-04T02:32:31.196Z,1.96
2022-12-04T02:38:10.970Z,1.97
2022-12-04T02:43:44.657Z,1.95
2022-12-04T02:49:20.114Z,1.93
2022-12-04T02:54:56.256Z,1.93
2022-12-04T03:00:28.365Z,1.91
2022-12-04T03:06:04.394Z,1.93
2022-12-04T03:11:37.267Z,1.95
2022-12-04T03:17:18.504Z,1.97
2022-12-04T03:22:53.977Z,1.97
2022-12-04T03:28:57.157Z,1.99
2022-12-04T03:34:48.457Z,2.00
2022-12-04T03:40:32.707Z,2.01
2022-12-04T03:46:08.548Z,2.02
2022-12-04T03:51:45.547Z,2.02
2022-12-04T03:57:20.813Z,2.02
2022-12-04T04:02:56.765Z,2.03
2022-12-04T04:08:35.115Z,2.03
2022-12-04T04:14:30.277Z,2.05
2022-12-04T04:20:27.163Z,2.06
2022-12-04T04:26:00.026Z,2.08
2022-12-04T04:31:37.329Z,2.10
2022-12-04T04:37:30.045Z,2.11
2022-12-04T04:43:20.307Z,2.12
2022-12-04T04:48:57.083Z,2.12
2022-12-04T04:54:30.436Z,2.12
2022-12-04T05:00:05.426Z,2.14
2022-12-04T05:05:36.561Z,2.15
2022-12-04T05:11:13.051Z,2.14
2022-12-04T05:16:44.217Z,2.15
2022-12-04T05:22:32.679Z,2.15
2022-12-04T05:28:04.172Z,2.17
2022-12-04T05:33:35.078Z,2.19
2022-12-04T05:39:06.315Z,2.21
2022-12-04T05:44:37.499Z,2.21
2022-12-04T05:50:09.834Z,2.25
2022-12-04T05:55:40.989Z,2.25
2022-12-04T06:01:20.447Z,2.26
2022-12-04T06:06:51.729Z,2.26
2022-12-04T06:12:22.783Z,2.26
2022-12-04T06:17:53.955Z,2.27
2022-12-04T06:23:25.034Z,2.29
2022-12-04T06:28:57.838Z,2.29
2022-12-04T06:34:29.898Z,2.32
2022-12-04T06:40:01.606Z,2.33
2022-12-04T06:45:32.980Z,2.34
2022-12-04T06:51:11.921Z,2.35
2022-12-04T06:56:43.609Z,2.35
2022-12-04T07:02:15.398Z,2.35
2022-12-04T07:07:47.029Z,2.36
2022-12-04T07:13:18.512Z,2.39
2022-12-04T07:18:54.368Z,2.40
2022-12-04T07:24:25.575Z,2.43
2022-12-04T07:29:56.787Z,2.43
2022-12-04T07:35:28.511Z,2.45
2022-12-04T07:41:00.732Z,2.49
2022-12-04T07:46:32.206Z,2.55
2022-12-04T07:52:04.427Z,2.56
2022-12-04T07:57:36.264Z,2.57
2022-12-04T08:03:07.580Z,2.61
2022-12-04T08:08:39.489Z,2.63
2022-12-04T08:14:12.174Z,2.67
2022-12-04T08:19:43.398Z,2.72
2022-12-04T08:25:14.726Z,2.79
2022-12-04T08:30:46.438Z,2.80
2022-12-04T08:36:19.538Z,2.79
2022-12-04T08:41:55.411Z,2.82
2022-12-04T08:47:28.848Z,2.84
2022-12-04T08:53:01.803Z,2.85
2022-12-04T08:58:33.455Z,2.82
2022-12-04T09:04:05.152Z,2.84
2022-12-04T09:09:36.465Z,2.82
2022-12-04T09:15:08.611Z,2.83
2022-12-04T10:11:00.307Z,2.74
2022-12-04T10:16:50.394Z,2.74
2022-12-04T10:22:35.367Z,2.77
2022-12-04T10:28:41.894Z,2.78
2022-12-04T10:34:17.404Z,2.80
2022-12-04T10:39:56.706Z,2.83
2022-12-04T10:45:28.114Z,2.84
2022-12-04T10:50:59.367Z,2.86
2022-12-04T10:56:30.878Z,2.89
2022-12-04T11:02:20.386Z,2.90
2022-12-04T11:07:52.366Z,2.88
2022-12-04T11:13:23.904Z,2.94
2022-12-04T11:18:55.499Z,2.98
2022-12-04T11:24:29.172Z,3.00
2022-12-04T11:30:09.428Z,3.03
2022-12-04T11:35:41.161Z,3.07
2022-12-04T11:41:29.025Z,3.10
2022-12-04T11:47:04.574Z,3.14
2022-12-04T11:53:02.708Z,3.15
2022-12-04T11:58:52.106Z,3.19
2022-12-04T12:04:34.777Z,3.21
2022-12-04T12:10:06.084Z,3.23
2022-12-04T12:15:49.342Z,3.24
2022-12-04T12:21:45.853Z,3.26
2022-12-04T12:27:50.755Z,3.26
2022-12-04T12:33:25.677Z,3.27
2022-12-04T12:39:00.590Z,3.25
2022-12-04T12:44:51.184Z,3.24
2022-12-04T12:50:26.760Z,3.23
2022-12-04T12:56:01.441Z,3.27
2022-12-04T13:01:55.941Z,3.29
2022-12-04T13:07:41.224Z,3.30
2022-12-04T13:23:12.851Z,3.31
2022-12-04T13:29:25.719Z,3.31
2022-12-04T13:35:09.389Z,3.29
2022-12-04T13:40:43.423Z,3.31
2022-12-04T13:46:39.435Z,3.34
2022-12-04T13:52:26.434Z,3.38
2022-12-04T13:58:23.602Z,3.36
2022-12-04T14:03:57.748Z,3.39
2022-12-04T14:09:44.386Z,3.43
2022-12-04T14:15:26.934Z,3.44
2022-12-04T14:21:05.027Z,3.49
2022-12-04T14:27:03.705Z,3.49
2022-12-04T14:32:34.802Z,3.49
2022-12-04T14:38:07.216Z,3.50
2022-12-04T14:43:41.927Z,3.49
2022-12-04T14:49:25.430Z,3.48
2022-12-04T14:55:07.668Z,3.52
2022-12-04T15:00:39.217Z,3.53
2022-12-04T15:06:18.969Z,3.54
2022-12-04T15:12:16.002Z,3.52
2022-12-04T15:18:17.460Z,3.52
2022-12-04T15:23:49.477Z,3.49
2022-12-04T15:29:22.749Z,3.48
2022-12-04T15:34:58.012Z,3.51
2022-12-04T15:40:32.236Z,3.51
2022-12-04T15:46:11.267Z,3.53
2022-12-04T15:51:44.193Z,3.54
2022-12-04T15:57:29.310Z,3.56
2022-12-04T16:03:01.040Z,3.57
2022-12-04T16:08:35.131Z,3.56
2022-12-04T16:14:14.643Z,3.62
2022-12-04T16:19:46.213Z,3.64
2022-12-04T16:25:18.185Z,3.62
2022-12-04T16:30:52.354Z,3.63
2022-12-04T16:36:23.952Z,3.61
2022-12-04T16:41:55.299Z,3.62
2022-12-04T16:47:26.355Z,3.61
2022-12-04T16:53:00.735Z,3.65
2022-12-04T16:58:32.926Z,3.66
2022-12-04T17:04:04.294Z,3.63
2022-12-04T17:09:35.382Z,3.64
2022-12-04T17:15:07.258Z,3.64
2022-12-04T17:20:41.242Z,3.66
2022-12-04T17:26:14.746Z,3.67
2022-12-04T17:31:46.019Z,3.66
2022-12-04T17:37:16.929Z,3.70
2022-12-04T17:42:48.987Z,3.72
2022-12-04T17:48:20.264Z,3.71
2022-12-04T17:53:52.822Z,3.70
2022-12-04T17:59:24.210Z,3.70
2022-12-04T18:04:55.953Z,3.71
2022-12-04T18:10:27.527Z,3.70
2022-12-04T18:16:10.274Z,3.71
2022-12-04T18:21:41.520Z,3.72
2022-12-04T18:27:12.565Z,3.73
2022-12-04T18:32:45.329Z,3.73
2022-12-04T18:38:16.673Z,3.72
2022-12-04T18:43:48.898Z,3.71
2022-12-04T18:49:21.135Z,3.73
2022-12-04T18:54:52.945Z,3.71
2022-12-04T19:00:26.179Z,3.73
2022-12-04T19:05:58.847Z,3.72
2022-12-04T19:11:30.121Z,3.75
2022-12-04T19:17:01.202Z,3.76
2022-12-04T19:22:33.039Z,3.78
2022-12-04T19:28:05.546Z,3.78
2022-12-04T19:33:37.451Z,3.78
2022-12-04T19:39:08.482Z,3.75
2022-12-04T19:44:48.315Z,3.72
2022-12-04T19:50:20.533Z,3.72
2022-12-04T19:55:51.860Z,3.73
2022-12-04T20:01:27.531Z,3.68
2022-12-04T20:06:59.044Z,3.70
2022-12-04T20:12:30.001Z,3.73
2022-12-04T20:18:01.214Z,3.73
2022-12-04T20:23:32.418Z,3.72
2022-12-04T20:29:04.116Z,3.69
2022-12-04T20:34:38.862Z,3.67
2022-12-04T20:40:15.151Z,3.66
2022-12-04T20:45:50.414Z,3.68
2022-12-04T20:51:36.566Z,3.67
2022-12-04T20:57:09.501Z,3.67
2022-12-04T21:02:44.609Z,3.70
2022-12-04T21:08:38.222Z,3.74
2022-12-04T21:14:41.218Z,3.72
2022-12-04T21:20:14.206Z,3.70
2022-12-04T21:25:47.854Z,3.71
2022-12-04T21:31:20.609Z,3.71
2022-12-04T21:36:54.456Z,3.71
2022-12-04T21:42:30.555Z,3.70
2022-12-04T21:48:04.601Z,3.69
2022-12-04T21:53:42.287Z,3.67
2022-12-04T21:59:18.843Z,3.67
2022-12-04T22:04:57.866Z,3.66
2022-12-04T22:10:32.766Z,3.64
2022-12-04T22:16:08.016Z,3.63
2022-12-04T22:21:40.821Z,3.62
2022-12-04T22:27:15.128Z,3.63
2022-12-04T22:32:46.661Z,3.63
2022-12-04T22:38:17.606Z,3.66
2022-12-04T22:43:49.003Z,3.68
2022-12-04T22:49:20.365Z,3.67
2022-12-04T22:54:52.080Z,3.68
2022-12-04T23:00:23.291Z,3.66
2022-12-04T23:05:54.237Z,3.67
2022-12-04T23:11:26.753Z,3.68
2022-12-04T23:16:58.257Z,3.67
2022-12-04T23:22:29.543Z,3.64
2022-12-04T23:28:00.462Z,3.61
2022-12-04T23:33:32.317Z,3.61
2022-12-04T23:39:03.971Z,3.62
2022-12-04T23:44:35.138Z,3.63
2022-12-04T23:50:06.827Z,3.63
2022-12-04T23:55:37.796Z,3.62
